createdAt,value
2023-03-11T00:00:47.437Z,6.55
2023-03-11T00:03:16.427Z,4.90
2023-03-11T00:05:44.001Z,2.35
2023-03-11T00:08:13.176Z,4.78
2023-03-11T00:10:42.033Z,2.55
2023-03-11T00:13:11.352Z,2.60
2023-03-11T00:15:39.033Z,2.55
2023-03-11T00:18:06.335Z,2.85
2023-03-11T00:20:35.011Z,2.67
2023-03-11T00:23:03.929Z,2.67
2023-03-11T00:25:31.737Z,2.20
2023-03-11T00:27:58.865Z,2.38
2023-03-11T00:30:26.124Z,4.43
2023-03-11T00:32:54.260Z,4.60
2023-03-11T00:35:27.382Z,5.82
2023-03-11T00:40:22.706Z,6.18
2023-03-11T00:42:51.993Z,4.10
2023-03-11T00:45:19.988Z,2.40
2023-03-11T00:47:47.844Z,4.57
2023-03-11T00:50:18.451Z,4.38
2023-03-11T00:52:48.398Z,1.55
2023-03-11T00:55:17.083Z,2.33
2023-03-11T00:57:44.532Z,1.92
2023-03-11T01:00:16.261Z,2.28
2023-03-11T01:02:43.299Z,5.05
2023-03-11T01:05:10.865Z,2.40
2023-03-11T01:07:37.728Z,2.47
2023-03-11T01:10:05.963Z,1.95
2023-03-11T01:12:33.060Z,4.18
2023-03-11T01:14:59.900Z,1.85
2023-03-11T01:17:27.329Z,1.58
2023-03-11T01:19:54.152Z,3.53
2023-03-11T01:22:22.581Z,2.05
2023-03-11T01:24:49.365Z,2.97
2023-03-11T01:27:16.952Z,2.30
2023-03-11T01:29:44.125Z,2.20
2023-03-11T01:32:11.309Z,2.28
2023-03-11T01:34:38.745Z,2.17
2023-03-11T01:37:05.530Z,2.25
2023-03-11T01:39:32.297Z,1.30
2023-03-11T01:41:59.600Z,1.48
2023-03-11T01:44:26.755Z,1.50
2023-03-11T01:46:53.656Z,3.10
2023-03-11T01:49:24.429Z,1.60
2023-03-11T01:51:53.935Z,1.20
2023-03-11T01:54:21.582Z,1.77
2023-03-11T01:56:49.579Z,1.45
2023-03-11T01:59:19.456Z,1.33
2023-03-11T02:02:07.189Z,1.17
2023-03-11T02:04:34.847Z,1.17
2023-03-11T02:07:01.912Z,1.08
2023-03-11T02:09:28.961Z,1.45
2023-03-11T02:11:57.181Z,1.85
2023-03-11T02:14:24.311Z,1.00
2023-03-11T02:16:51.097Z,1.10
2023-03-11T02:19:30.145Z,0.90
2023-03-11T02:21:57.047Z,0.90
2023-03-11T02:24:51.019Z,1.13
2023-03-11T02:27:18.591Z,0.98
2023-03-11T02:29:47.094Z,1.42
2023-03-11T02:32:13.969Z,1.00
2023-03-11T02:34:40.726Z,1.02
2023-03-11T02:37:11.024Z,1.38
2023-03-11T02:39:41.983Z,1.00
2023-03-11T02:42:29.028Z,11.05
2023-03-11T02:45:03.933Z,1.20
2023-03-11T02:47:30.679Z,1.98
2023-03-11T02:49:59.175Z,1.30
2023-03-11T02:52:27.215Z,1.50
2023-03-11T02:54:53.984Z,2.60
2023-03-11T02:57:20.717Z,2.03
2023-03-11T02:59:47.491Z,2.45
2023-03-11T03:02:14.643Z,2.03
2023-03-11T03:04:41.432Z,1.63
2023-03-11T03:07:09.155Z,1.35
2023-03-11T03:09:36.393Z,1.20
2023-03-11T03:12:03.653Z,3.20
2023-03-11T03:14:30.687Z,1.70
2023-03-11T03:16:57.631Z,6.28
2023-03-11T03:19:24.855Z,1.60
2023-03-11T03:21:51.715Z,1.92
2023-03-11T03:24:18.541Z,1.45
2023-03-11T03:26:46.568Z,1.33
2023-03-11T03:29:13.702Z,1.50
2023-03-11T03:31:41.054Z,1.70
2023-03-11T03:34:07.847Z,1.40
2023-03-11T03:36:35.072Z,1.50
2023-03-11T03:39:02.107Z,1.60
2023-03-11T03:41:28.864Z,1.60
2023-03-11T03:43:57.836Z,1.63
2023-03-11T03:46:25.095Z,1.92
2023-03-11T03:48:52.689Z,2.40
2023-03-11T03:51:19.478Z,1.50
2023-03-11T03:53:48.913Z,1.70
2023-03-11T03:56:17.486Z,1.50
2023-03-11T03:58:44.346Z,1.25
2023-03-11T04:01:11.466Z,2.50
2023-03-11T04:03:39.200Z,1.52
2023-03-11T04:06:39.891Z,1.20
2023-03-11T04:09:07.241Z,1.35
2023-03-11T04:11:34.120Z,1.58
2023-03-11T04:14:02.762Z,1.58
2023-03-11T04:16:29.697Z,1.50
2023-03-11T04:18:56.557Z,1.30
2023-03-11T04:21:23.342Z,1.30
2023-03-11T04:23:50.141Z,1.52
2023-03-11T04:26:16.952Z,1.30
2023-03-11T04:28:43.734Z,2.88
2023-03-11T04:31:12.666Z,1.30
2023-03-11T04:33:40.070Z,0.93
2023-03-11T04:36:08.132Z,1.00
2023-03-11T04:38:35.128Z,0.90
2023-03-11T04:41:03.123Z,0.98
2023-03-11T04:43:30.213Z,0.90
2023-03-11T04:45:57.168Z,1.13
2023-03-11T04:48:24.773Z,1.00
2023-03-11T04:50:51.612Z,0.93
2023-03-11T04:53:18.917Z,2.05
2023-03-11T04:55:48.121Z,1.25
2023-03-11T04:58:15.132Z,0.80
2023-03-11T05:00:42.214Z,1.15
2023-03-11T05:03:09.459Z,0.98
2023-03-11T05:05:36.327Z,1.85
2023-03-11T05:08:06.932Z,1.00
2023-03-11T05:10:35.671Z,0.90
2023-03-11T05:13:02.924Z,1.13
2023-03-11T05:15:34.235Z,1.10
2023-03-11T05:18:01.355Z,1.00
2023-03-11T05:20:28.486Z,1.27
2023-03-11T05:22:56.893Z,0.95
2023-03-11T05:25:23.861Z,0.90
2023-03-11T05:27:50.670Z,1.83
2023-03-11T05:30:18.919Z,1.10
2023-03-11T05:32:48.289Z,0.80
2023-03-11T05:35:15.828Z,3.00
2023-03-11T05:37:42.778Z,2.50
2023-03-11T05:40:11.241Z,1.58
2023-03-11T05:42:38.138Z,2.90
2023-03-11T05:45:05.255Z,1.23
2023-03-11T05:47:32.207Z,1.77
2023-03-11T05:49:59.087Z,1.27
2023-03-11T05:52:30.636Z,0.98
2023-03-11T05:54:57.369Z,1.20
2023-03-11T05:57:24.708Z,1.20
2023-03-11T05:59:52.667Z,1.40
2023-03-11T06:02:21.113Z,0.98
2023-03-11T06:04:48.602Z,1.30
2023-03-11T06:07:16.937Z,1.30
2023-03-11T06:09:47.777Z,1.02
2023-03-11T06:12:14.528Z,1.35
2023-03-11T06:14:41.352Z,0.90
2023-03-11T06:17:08.224Z,1.10
2023-03-11T06:19:37.278Z,1.67
2023-03-11T06:22:05.173Z,4.00
2023-03-11T06:24:33.270Z,0.90
2023-03-11T06:27:00.136Z,0.95
2023-03-11T06:29:29.372Z,2.00
2023-03-11T06:31:56.533Z,0.90
2023-03-11T06:34:24.835Z,4.45
2023-03-11T06:36:52.501Z,0.95
2023-03-11T06:39:24.074Z,1.20
2023-03-11T06:41:51.519Z,0.98
2023-03-11T06:44:18.540Z,1.58
2023-03-11T06:46:45.388Z,1.25
2023-03-11T06:49:12.232Z,1.17
2023-03-11T06:51:41.540Z,3.03
2023-03-11T06:54:16.887Z,1.13
2023-03-11T06:56:43.795Z,1.20
2023-03-11T06:59:11.525Z,1.92
2023-03-11T07:01:38.292Z,1.00
2023-03-11T07:04:05.945Z,1.33
2023-03-11T07:06:33.418Z,1.30
2023-03-11T07:09:00.656Z,1.30
2023-03-11T07:11:28.356Z,0.98
2023-03-11T07:13:55.657Z,2.30
2023-03-11T07:16:24.685Z,1.10
2023-03-11T07:18:51.905Z,1.90
2023-03-11T07:21:22.188Z,1.58
2023-03-11T07:23:57.229Z,1.27
2023-03-11T07:26:26.355Z,1.50
2023-03-11T07:28:54.149Z,1.88
2023-03-11T07:31:23.619Z,1.02
2023-03-11T07:33:51.034Z,1.65
2023-03-11T07:36:21.984Z,1.20
2023-03-11T07:38:54.349Z,1.45
2023-03-11T07:41:23.426Z,1.38
2023-03-11T07:43:56.830Z,1.35
2023-03-11T07:46:24.342Z,1.02
2023-03-11T07:48:52.104Z,2.03
2023-03-11T07:51:21.188Z,1.05
2023-03-11T07:53:50.763Z,1.30
2023-03-11T07:56:17.737Z,2.15
2023-03-11T07:58:47.698Z,1.23
2023-03-11T08:01:16.607Z,1.00
2023-03-11T08:03:47.097Z,5.50
2023-03-11T08:06:21.724Z,1.30
2023-03-11T08:08:49.602Z,1.30
2023-03-11T08:11:17.978Z,1.02
2023-03-11T08:13:47.062Z,1.25
2023-03-11T08:16:19.431Z,3.97
2023-03-11T08:18:47.249Z,1.40
2023-03-11T08:21:15.864Z,2.55
2023-03-11T08:23:44.314Z,1.25
2023-03-11T08:26:13.123Z,1.25
2023-03-11T08:28:51.680Z,1.30
2023-03-11T08:31:25.316Z,2.28
2023-03-11T08:33:57.746Z,1.40
2023-03-11T08:36:29.157Z,1.58
2023-03-11T08:38:56.042Z,1.42
2023-03-11T08:41:23.013Z,1.45
2023-03-11T08:43:52.139Z,1.20
2023-03-11T08:46:30.549Z,1.42
2023-03-11T08:49:01.440Z,1.10
2023-03-11T08:51:29.003Z,0.90
2023-03-11T08:53:58.316Z,1.13
2023-03-11T08:56:29.071Z,2.72
2023-03-11T09:01:42.647Z,0.90
2023-03-11T09:04:09.638Z,1.40
2023-03-11T09:06:37.358Z,0.80
2023-03-11T09:09:04.200Z,0.90
2023-03-11T09:11:31.463Z,0.80
2023-03-11T09:13:59.041Z,1.77
2023-03-11T09:16:25.923Z,1.02
2023-03-11T09:18:52.884Z,0.80
2023-03-11T09:21:20.395Z,1.00
2023-03-11T09:23:47.726Z,1.02
2023-03-11T09:26:14.739Z,1.02
2023-03-11T09:28:42.422Z,1.08
2023-03-11T09:31:10.745Z,0.80
2023-03-11T09:33:39.261Z,0.90
2023-03-11T09:36:13.001Z,0.88
2023-03-11T09:38:40.510Z,1.00
2023-03-11T09:41:26.344Z,1.00
2023-03-11T09:44:15.178Z,1.98
2023-03-11T09:47:05.465Z,1.00
2023-03-11T09:49:42.354Z,1.73
2023-03-11T09:52:16.815Z,0.65
2023-03-11T09:55:03.446Z,0.93
2023-03-11T09:57:34.576Z,1.15
2023-03-11T10:00:02.246Z,0.73
2023-03-11T10:02:32.758Z,0.70
2023-03-11T10:05:04.718Z,1.17
2023-03-11T10:07:34.609Z,0.60
2023-03-11T10:10:02.746Z,0.68
2023-03-11T10:12:53.103Z,0.77
2023-03-11T10:16:19.582Z,4.30
2023-03-11T10:19:09.450Z,0.80
2023-03-11T10:21:50.822Z,1.13
2023-03-11T10:24:20.051Z,0.98
2023-03-11T10:26:58.536Z,1.38
2023-03-11T10:29:30.849Z,2.00
2023-03-11T10:32:17.176Z,1.20
2023-03-11T10:35:10.956Z,1.40
2023-03-11T10:37:49.295Z,1.15
2023-03-11T10:40:23.764Z,1.83
2023-03-11T10:42:51.345Z,1.50
2023-03-11T10:45:18.123Z,1.58
2023-03-11T10:47:45.031Z,1.23
2023-03-11T10:50:19.362Z,1.42
2023-03-11T10:53:06.411Z,2.00
2023-03-11T10:55:33.768Z,1.63
2023-03-11T10:58:08.277Z,1.10
2023-03-11T11:00:36.566Z,1.10
2023-03-11T11:03:04.496Z,1.30
2023-03-11T11:05:35.383Z,0.80
2023-03-11T11:08:16.045Z,3.05
2023-03-11T11:10:55.074Z,0.85
2023-03-11T11:13:24.175Z,1.95
2023-03-11T11:16:05.113Z,0.80
2023-03-11T11:18:48.188Z,0.80
2023-03-11T11:21:39.474Z,1.33
2023-03-11T11:24:24.539Z,1.40
2023-03-11T11:27:10.431Z,1.38
2023-03-11T11:29:37.365Z,1.52
2023-03-11T11:32:19.028Z,1.42
2023-03-11T11:34:57.619Z,0.90
2023-03-11T11:37:26.840Z,1.30
2023-03-11T11:39:56.251Z,2.22
2023-03-11T11:42:25.459Z,2.70
2023-03-11T11:45:02.953Z,2.00
2023-03-11T11:47:34.115Z,1.00
2023-03-11T11:50:07.036Z,1.02
2023-03-11T11:52:40.231Z,1.30
2023-03-11T11:57:34.905Z,1.10
2023-03-11T12:00:03.322Z,1.63
2023-03-11T12:02:57.430Z,1.40
2023-03-11T12:05:29.075Z,2.00
2023-03-11T12:08:36.218Z,1.00
2023-03-11T12:11:19.078Z,1.48
2023-03-11T12:13:45.823Z,1.35
2023-03-11T12:16:18.685Z,0.90
2023-03-11T12:18:53.400Z,1.75
2023-03-11T12:21:32.153Z,1.10
2023-03-11T12:24:32.093Z,1.15
2023-03-11T12:27:01.397Z,1.05
2023-03-11T12:29:36.945Z,1.50
2023-03-11T12:32:03.861Z,1.10
2023-03-11T12:34:31.336Z,1.35
2023-03-11T12:36:59.494Z,1.17
2023-03-11T12:39:35.695Z,2.05
2023-03-11T12:42:11.997Z,1.15
2023-03-11T12:44:39.273Z,1.35
2023-03-11T12:47:13.531Z,2.53
2023-03-11T12:49:49.381Z,2.15
2023-03-11T12:52:22.409Z,1.25
2023-03-11T12:54:55.716Z,0.88
2023-03-11T12:57:22.794Z,0.80
2023-03-11T12:59:57.719Z,1.67
2023-03-11T13:02:55.420Z,0.90
2023-03-11T13:05:24.884Z,1.25
2023-03-11T13:08:15.456Z,1.55
2023-03-11T13:10:43.686Z,3.50
2023-03-11T13:13:40.109Z,1.30
2023-03-11T13:16:13.591Z,1.58
2023-03-11T13:18:41.538Z,2.35
2023-03-11T13:21:27.192Z,1.27
2023-03-11T13:24:21.524Z,2.55
2023-03-11T13:27:00.855Z,1.60
2023-03-11T13:30:12.760Z,1.30
2023-03-11T13:32:55.042Z,1.17
2023-03-11T13:35:43.409Z,1.90
2023-03-11T13:38:31.807Z,1.20
2023-03-11T13:40:58.835Z,1.02
2023-03-11T13:43:27.986Z,0.95
2023-03-11T13:46:02.171Z,2.20
2023-03-11T13:48:33.058Z,0.70
2023-03-11T13:51:05.354Z,1.20
2023-03-11T13:53:43.853Z,0.90
2023-03-11T13:56:44.515Z,1.48
2023-03-11T13:59:17.924Z,1.17
2023-03-11T14:01:55.992Z,1.73
2023-03-11T14:04:28.555Z,2.00
2023-03-11T14:06:57.784Z,1.55
2023-03-11T14:09:25.780Z,3.13
2023-03-11T14:12:03.462Z,1.50
2023-03-11T14:14:49.553Z,2.33
2023-03-11T14:17:17.968Z,1.50
2023-03-11T14:20:01.636Z,1.40
2023-03-11T14:22:28.719Z,3.25
2023-03-11T14:24:55.961Z,1.45
2023-03-11T14:27:22.776Z,1.63
2023-03-11T14:29:49.847Z,1.67
2023-03-11T14:32:30.790Z,3.22
2023-03-11T14:34:57.915Z,1.30
2023-03-11T14:37:35.863Z,1.17
2023-03-11T14:40:04.262Z,1.58
2023-03-11T14:42:45.063Z,1.63
2023-03-11T14:45:16.726Z,1.38
2023-03-11T14:47:59.863Z,1.50
2023-03-11T14:50:34.723Z,1.48
2023-03-11T14:53:19.243Z,0.80
2023-03-11T14:55:56.799Z,1.33
2023-03-11T15:11:57.639Z,0.88
2023-03-11T15:17:39.835Z,0.90
2023-03-11T15:20:39.752Z,1.42
2023-03-11T15:23:42.501Z,1.10
2023-03-11T15:29:32.770Z,1.48
2023-03-11T15:32:23.386Z,1.38
2023-03-11T15:35:04.841Z,2.28
2023-03-11T15:45:38.999Z,1.90
2023-03-11T15:51:14.073Z,1.10
2023-03-11T16:01:58.950Z,0.88
2023-03-11T16:04:31.157Z,2.03
2023-03-11T20:13:24.408Z,1.80
2023-03-11T20:29:01.279Z,3.05
2023-03-11T20:34:56.460Z,2.88
2023-03-11T20:37:31.237Z,4.40
2023-03-11T20:40:01.917Z,4.13
2023-03-11T20:42:29.942Z,4.00
2023-03-11T20:44:56.800Z,5.25
2023-03-11T20:47:23.969Z,2.45
2023-03-11T20:49:53.475Z,2.25
2023-03-11T20:52:20.256Z,5.75
2023-03-11T20:54:47.109Z,1.83
2023-03-11T20:57:17.072Z,2.85
2023-03-11T20:59:44.165Z,4.43
2023-03-11T21:02:11.919Z,2.92
2023-03-11T21:04:41.282Z,3.22
2023-03-11T21:07:08.811Z,4.18
2023-03-11T21:09:36.037Z,4.68
2023-03-11T21:12:02.973Z,2.88
2023-03-11T21:14:30.468Z,4.32
2023-03-11T21:16:59.996Z,3.55
2023-03-11T21:19:26.900Z,3.30
2023-03-11T21:21:53.711Z,5.50
2023-03-11T21:24:20.726Z,5.07
2023-03-11T21:26:49.067Z,3.17
2023-03-11T21:29:17.229Z,2.97
2023-03-11T21:31:44.225Z,4.78
2023-03-11T21:34:11.953Z,3.05
2023-03-11T21:36:38.927Z,5.65
2023-03-11T21:39:10.939Z,4.05
2023-03-11T21:41:38.517Z,4.55
2023-03-11T21:44:07.336Z,4.20
2023-03-11T21:46:34.479Z,4.13
2023-03-11T21:49:01.679Z,6.82
2023-03-11T21:51:28.737Z,2.70
2023-03-11T21:53:56.439Z,2.70
2023-03-11T21:56:24.225Z,3.90
2023-03-11T21:58:51.224Z,3.03
2023-03-11T22:01:18.289Z,4.32
2023-03-11T22:03:48.034Z,3.50
2023-03-11T22:06:14.940Z,4.03
2023-03-11T22:08:43.096Z,3.50
2023-03-11T22:11:11.358Z,3.25
2023-03-11T22:13:38.225Z,2.92
2023-03-11T22:16:06.705Z,3.58
2023-03-11T22:18:33.632Z,4.05
2023-03-11T22:21:00.612Z,3.55
2023-03-11T22:23:27.869Z,3.97
2023-03-11T22:25:54.728Z,3.85
2023-03-11T22:28:23.024Z,5.18
2023-03-11T22:30:50.336Z,5.95
2023-03-11T22:33:17.211Z,6.00
2023-03-11T22:35:53.845Z,4.63
2023-03-11T22:38:20.781Z,4.38
2023-03-11T22:40:47.891Z,4.45
2023-03-11T22:43:14.728Z,4.13
2023-03-11T22:45:42.302Z,5.55
2023-03-11T22:48:09.034Z,3.78
2023-03-11T22:50:36.426Z,4.75
2023-03-11T22:53:05.844Z,2.58
2023-03-11T22:55:32.532Z,3.95
2023-03-11T22:57:59.307Z,4.18
2023-03-11T23:00:26.110Z,4.07
2023-03-11T23:02:55.273Z,3.55
2023-03-11T23:05:22.131Z,5.45
2023-03-11T23:07:49.289Z,5.43
2023-03-11T23:10:19.029Z,6.45
2023-03-11T23:12:47.271Z,5.05
2023-03-11T23:15:16.089Z,4.07
2023-03-11T23:17:44.172Z,4.30
2023-03-11T23:20:13.244Z,4.28
2023-03-11T23:22:40.569Z,4.05
2023-03-11T23:25:09.429Z,3.88
2023-03-11T23:27:36.174Z,5.30
2023-03-11T23:30:03.129Z,6.30
2023-03-11T23:32:31.628Z,6.30
2023-03-11T23:34:58.474Z,5.72
2023-03-11T23:37:26.832Z,4.53
2023-03-11T23:39:53.603Z,4.40
2023-03-11T23:42:25.805Z,3.95
2023-03-11T23:44:53.427Z,4.93
2023-03-11T23:47:20.840Z,3.83
2023-03-11T23:49:47.622Z,4.78
2023-03-11T23:52:14.871Z,4.90
2023-03-11T23:54:43.037Z,4.38
2023-03-11T23:57:11.001Z,4.35
2023-03-11T23:59:37.735Z,3.72
